Time;durP1;ratioP1;P1;durP2;ratioP2;P2;SDS_P1;SDS_P2;PMS_P1;PMS_P2;Temp;Humidity;BMP_temperature;BMP_pressure;BME280_temperature;BME280_humidity;BME280_pressure;Samples;Min_cycle;Max_cycle;Signal;HPM_P1;HPM_P2
2024/03/09 00:01:49;;;;;;;18.27;10.65;;;;;;;;;;4894444;29;20037;-89
2024/03/09 00:04:35;;;;;;;20.65;12.10;;;;;;;;;;4895344;29;20039;-89
2024/03/09 00:07:24;;;;;;;18.48;10.90;;;;;;;;;;4894562;29;20024;-90
2024/03/09 00:10:12;;;;;;;16.63;11.03;;;;;;;;;;4896832;29;20020;-89
2024/03/09 00:12:58;;;;;;;20.27;11.25;;;;;;;;;;4901883;29;20353;-89
2024/03/09 00:15:45;;;;;;;20.08;11.65;;;;;;;;;;4896861;29;20118;-90
2024/03/09 00:18:32;;;;;;;21.88;10.70;;;;;;;;;;4913482;29;20032;-89
2024/03/09 00:21:17;;;;;;;18.58;10.82;;;;;;;;;;4898653;29;20031;-89
2024/03/09 00:24:04;;;;;;;25.38;11.35;;;;;;;;;;4913021;29;20027;-90
2024/03/09 00:26:49;;;;;;;19.75;10.23;;;;;;;;;;4899442;29;20518;-89
2024/03/09 00:29:34;;;;;;;18.30;10.55;;;;;;;;;;4899173;29;20044;-89
2024/03/09 00:32:20;;;;;;;21.55;10.55;;;;;;;;;;4898351;29;20027;-89
2024/03/09 00:35:07;;;;;;;20.58;10.73;;;;;;;;;;4899394;29;20031;-90
2024/03/09 00:37:53;;;;;;;18.45;9.15;;;;;;;;;;4899524;29;20034;-90
2024/03/09 00:40:38;;;;;;;19.88;9.90;;;;;;;;;;4911917;29;20061;-89
2024/03/09 00:43:24;;;;;;;24.95;12.07;;;;;;;;;;4890135;29;20032;-90
2024/03/09 00:46:10;;;;;;;17.33;9.73;;;;;;;;;;4891007;29;20059;-89
2024/03/09 00:48:55;;;;;;;19.33;11.15;;;;;;;;;;4885098;29;20471;-89
2024/03/09 00:51:40;;;;;;;15.98;9.73;;;;;;;;;;4901531;29;20084;-89
2024/03/09 00:54:26;;;;;;;19.48;10.80;;;;;;;;;;4916252;29;20447;-89
2024/03/09 00:57:13;;;;;;;18.73;10.32;;;;;;;;;;4901599;29;20024;-89
2024/03/09 01:00:00;;;;;;;17.75;9.85;;;;;;;;;;4900508;29;20020;-90
2024/03/09 01:02:47;;;;;;;19.40;11.73;;;;;;;;;;4913619;29;20051;-90
2024/03/09 01:05:32;;;;;;;17.95;10.43;;;;;;;;;;4913168;29;20068;-89
2024/03/09 01:08:20;;;;;;;22.92;11.55;;;;;;;;;;4899813;29;20028;-89
2024/03/09 01:11:06;;;;;;;17.42;10.55;;;;;;;;;;4897274;29;20107;-89
2024/03/09 01:13:51;;;;;;;17.60;9.73;;;;;;;;;;4889948;29;20547;-89
2024/03/09 01:16:36;;;;;;;17.95;10.57;;;;;;;;;;4898993;29;20091;-89
2024/03/09 01:19:22;;;;;;;17.45;10.25;;;;;;;;;;4893189;29;20047;-89
2024/03/09 01:22:07;;;;;;;17.00;9.95;;;;;;;;;;4893834;29;20539;-89
2024/03/09 01:24:52;;;;;;;21.00;10.10;;;;;;;;;;4896294;29;20028;-89
2024/03/09 01:27:38;;;;;;;18.83;10.20;;;;;;;;;;4910136;29;20028;-89
2024/03/09 01:30:24;;;;;;;16.67;9.98;;;;;;;;;;4898355;29;20577;-90
2024/03/09 01:33:10;;;;;;;20.83;10.55;;;;;;;;;;4898713;29;20020;-89
2024/03/09 01:35:55;;;;;;;17.65;9.60;;;;;;;;;;4898661;29;20059;-90
2024/03/09 01:38:40;;;;;;;18.52;10.80;;;;;;;;;;4897511;29;20031;-89
2024/03/09 01:41:25;;;;;;;18.58;10.10;;;;;;;;;;4898437;29;20043;-89
2024/03/09 01:44:11;;;;;;;17.73;10.60;;;;;;;;;;4895589;29;20028;-90
2024/03/09 01:46:57;;;;;;;18.50;10.52;;;;;;;;;;4897709;29;20032;-89
2024/03/09 01:49:42;;;;;;;16.95;10.75;;;;;;;;;;4898238;29;20028;-90
2024/03/09 01:52:31;;;;;;;17.77;10.27;;;;;;;;;;4911494;29;20032;-90
2024/03/09 01:55:18;;;;;;;20.88;11.27;;;;;;;;;;4928911;29;20046;-89
2024/03/09 01:58:05;;;;;;;17.40;10.20;;;;;;;;;;4898302;29;20046;-89
2024/03/09 02:00:56;;;;;;;18.77;10.23;;;;;;;;;;4903669;29;20503;-89
2024/03/09 02:03:42;;;;;;;18.77;10.52;;;;;;;;;;4898212;29;20102;-88
2024/03/09 02:06:28;;;;;;;21.15;10.63;;;;;;;;;;4897522;29;20028;-89
2024/03/09 02:09:15;;;;;;;21.38;11.45;;;;;;;;;;4897347;29;20038;-89
2024/03/09 02:12:05;;;;;;;18.60;9.60;;;;;;;;;;4896803;29;20174;-89
2024/03/09 02:14:50;;;;;;;17.80;10.30;;;;;;;;;;4897735;29;20028;-89
2024/03/09 02:17:36;;;;;;;20.73;11.68;;;;;;;;;;4896460;29;20035;-89
2024/03/09 02:20:24;;;;;;;18.88;10.07;;;;;;;;;;4897419;29;20389;-89
2024/03/09 02:23:10;;;;;;;16.00;9.32;;;;;;;;;;4911353;29;20016;-89
2024/03/09 02:25:56;;;;;;;17.40;9.30;;;;;;;;;;4897607;29;20028;-90
2024/03/09 02:28:53;;;;;;;15.55;8.77;;;;;;;;;;4909289;29;20063;-89
2024/03/09 02:31:38;;;;;;;17.48;9.45;;;;;;;;;;4897088;29;20126;-90
2024/03/09 02:34:24;;;;;;;19.08;10.75;;;;;;;;;;4896532;29;20024;-89
2024/03/09 02:37:09;;;;;;;16.08;9.90;;;;;;;;;;4897394;29;20415;-89
2024/03/09 02:39:54;;;;;;;18.42;10.65;;;;;;;;;;4909782;29;20522;-89
2024/03/09 02:43:04;;;;;;;20.92;11.45;;;;;;;;;;4909537;29;20111;-89
2024/03/09 02:45:47;;;;;;;21.92;10.52;;;;;;;;;;4896137;29;20059;-89
2024/03/09 02:48:32;;;;;;;17.38;9.55;;;;;;;;;;4895608;29;20042;-89
2024/03/09 02:51:18;;;;;;;18.02;10.43;;;;;;;;;;4909526;29;20074;-89
2024/03/09 02:54:03;;;;;;;16.65;9.98;;;;;;;;;;4897341;29;20016;-89
2024/03/09 02:56:49;;;;;;;24.05;13.13;;;;;;;;;;4895836;29;20028;-89
2024/03/09 02:59:35;;;;;;;23.77;11.40;;;;;;;;;;4891664;29;20036;-88
2024/03/09 03:05:24;;;;;;;16.58;9.20;;;;;;;;;;4899687;29;20040;-89
2024/03/09 03:08:11;;;;;;;19.27;10.90;;;;;;;;;;4899331;29;20020;-89
2024/03/09 03:10:56;;;;;;;18.63;10.65;;;;;;;;;;4899550;29;20060;-89
2024/03/09 03:13:44;;;;;;;20.98;10.85;;;;;;;;;;4897952;29;20095;-88
2024/03/09 03:16:31;;;;;;;16.10;9.75;;;;;;;;;;4899617;29;20048;-89
2024/03/09 03:19:17;;;;;;;20.70;10.38;;;;;;;;;;4899379;29;20464;-88
2024/03/09 03:22:02;;;;;;;18.98;10.75;;;;;;;;;;4899067;29;20055;-88
2024/03/09 03:24:48;;;;;;;15.52;9.07;;;;;;;;;;4913152;29;20058;-89
2024/03/09 03:27:33;;;;;;;17.45;10.40;;;;;;;;;;4904838;29;20050;-89
2024/03/09 03:30:19;;;;;;;17.95;9.80;;;;;;;;;;4916171;29;20054;-89
2024/03/09 03:33:05;;;;;;;17.30;9.80;;;;;;;;;;4898281;29;20024;-89
2024/03/09 03:35:51;;;;;;;19.45;10.82;;;;;;;;;;4906868;29;20036;-89
2024/03/09 03:38:37;;;;;;;18.65;9.27;;;;;;;;;;4907464;29;20028;-88
2024/03/09 03:41:22;;;;;;;16.25;9.43;;;;;;;;;;4907383;29;20044;-88
2024/03/09 03:44:09;;;;;;;19.08;9.98;;;;;;;;;;4906650;29;20064;-89
2024/03/09 03:46:55;;;;;;;19.25;11.20;;;;;;;;;;4901334;29;20107;-89
2024/03/09 03:49:40;;;;;;;19.00;9.77;;;;;;;;;;4902745;29;20032;-90
2024/03/09 03:52:26;;;;;;;17.55;10.35;;;;;;;;;;4902621;29;20024;-89
2024/03/09 03:55:11;;;;;;;17.23;10.57;;;;;;;;;;4902088;29;20067;-89
2024/03/09 03:57:57;;;;;;;17.48;10.07;;;;;;;;;;4915598;29;20440;-89
2024/03/09 04:00:43;;;;;;;17.23;10.25;;;;;;;;;;4889797;29;20412;-89
2024/03/09 04:03:31;;;;;;;17.83;11.02;;;;;;;;;;4900235;29;20032;-89
2024/03/09 04:06:19;;;;;;;19.05;10.95;;;;;;;;;;4900324;29;20031;-89
2024/03/09 04:09:04;;;;;;;16.80;9.95;;;;;;;;;;4899324;29;20032;-90
2024/03/09 04:11:49;;;;;;;20.55;11.18;;;;;;;;;;4912958;29;20028;-89
2024/03/09 04:14:34;;;;;;;21.85;12.00;;;;;;;;;;4899409;29;20039;-88
2024/03/09 04:17:20;;;;;;;17.15;9.88;;;;;;;;;;4898507;29;20071;-90
2024/03/09 04:20:06;;;;;;;19.27;11.15;;;;;;;;;;4899124;29;20024;-88
2024/03/09 04:22:52;;;;;;;19.75;11.40;;;;;;;;;;4899291;29;20028;-89
2024/03/09 04:25:38;;;;;;;16.83;10.25;;;;;;;;;;4912098;29;20028;-89
2024/03/09 04:28:27;;;;;;;20.33;10.38;;;;;;;;;;4885108;29;20624;-89
2024/03/09 04:31:13;;;;;;;19.48;10.65;;;;;;;;;;4898681;29;20496;-90
2024/03/09 04:34:01;;;;;;;18.80;11.25;;;;;;;;;;4899239;29;20044;-89
2024/03/09 04:36:47;;;;;;;17.73;9.60;;;;;;;;;;4911683;29;20048;-89
2024/03/09 04:39:43;;;;;;;18.35;11.35;;;;;;;;;;4898399;29;20028;-90
2024/03/09 04:42:28;;;;;;;17.88;11.27;;;;;;;;;;4893402;29;20059;-88
2024/03/09 04:45:18;;;;;;;17.83;10.52;;;;;;;;;;4898757;29;20111;-89
2024/03/09 04:48:04;;;;;;;18.10;10.50;;;;;;;;;;4899573;29;20576;-89
2024/03/09 04:50:49;;;;;;;22.48;11.13;;;;;;;;;;4916251;29;20554;-89
2024/03/09 04:53:35;;;;;;;19.13;11.02;;;;;;;;;;4914257;29;20028;-89
2024/03/09 04:56:22;;;;;;;21.58;11.57;;;;;;;;;;4898739;29;20083;-89
2024/03/09 04:59:07;;;;;;;17.20;10.57;;;;;;;;;;4910403;29;20024;-89
2024/03/09 05:01:53;;;;;;;18.70;11.30;;;;;;;;;;4899147;29;20024;-89
2024/03/09 05:04:38;;;;;;;19.23;10.45;;;;;;;;;;4899799;29;20031;-90
2024/03/09 05:07:24;;;;;;;21.55;11.18;;;;;;;;;;4911730;29;20043;-89
2024/03/09 05:10:11;;;;;;;19.63;11.95;;;;;;;;;;4898586;29;20122;-89
2024/03/09 05:12:56;;;;;;;20.40;11.45;;;;;;;;;;4898606;29;20039;-89
2024/03/09 05:15:42;;;;;;;18.17;10.55;;;;;;;;;;4893921;29;20505;-89
2024/03/09 05:18:30;;;;;;;19.50;11.52;;;;;;;;;;4911085;29;20485;-89
2024/03/09 05:21:16;;;;;;;20.35;11.55;;;;;;;;;;4898619;29;20136;-88
2024/03/09 05:24:03;;;;;;;20.33;10.98;;;;;;;;;;4898837;29;20032;-90
2024/03/09 05:26:48;;;;;;;18.73;10.88;;;;;;;;;;4898815;29;20032;-89
2024/03/09 05:29:34;;;;;;;18.95;10.05;;;;;;;;;;4910543;29;20102;-90
2024/03/09 05:32:22;;;;;;;20.40;11.02;;;;;;;;;;4911826;29;20020;-89
2024/03/09 05:35:11;;;;;;;19.42;11.13;;;;;;;;;;4911972;29;20164;-89
2024/03/09 05:38:00;;;;;;;18.80;10.60;;;;;;;;;;4898238;29;20087;-89
2024/03/09 05:40:46;;;;;;;19.40;10.25;;;;;;;;;;4898023;29;20031;-88
2024/03/09 05:43:31;;;;;;;21.10;10.75;;;;;;;;;;4911756;29;20038;-88
2024/03/09 05:46:16;;;;;;;19.40;12.07;;;;;;;;;;4895917;29;20027;-89
2024/03/09 05:49:05;;;;;;;18.95;10.18;;;;;;;;;;4897884;29;20032;-89
2024/03/09 05:51:50;;;;;;;19.20;10.65;;;;;;;;;;4897364;29;20060;-89
2024/03/09 05:54:36;;;;;;;20.33;11.45;;;;;;;;;;4898208;29;20482;-89
2024/03/09 05:57:22;;;;;;;24.52;13.00;;;;;;;;;;4897862;29;20394;-88
2024/03/09 06:00:08;;;;;;;17.90;11.10;;;;;;;;;;4907900;29;20028;-89
2024/03/09 06:02:54;;;;;;;19.95;11.95;;;;;;;;;;4897999;29;20031;-89
2024/03/09 06:05:42;;;;;;;24.23;12.45;;;;;;;;;;4891866;29;20087;-88
2024/03/09 06:08:27;;;;;;;19.40;11.23;;;;;;;;;;4883899;29;20024;-88
2024/03/09 06:11:12;;;;;;;19.02;11.15;;;;;;;;;;4897515;29;20036;-89
2024/03/09 06:13:58;;;;;;;19.13;10.90;;;;;;;;;;4897722;29;20084;-88
2024/03/09 06:16:45;;;;;;;18.90;11.32;;;;;;;;;;4909091;29;20028;-89
2024/03/09 06:19:31;;;;;;;21.73;11.82;;;;;;;;;;4896123;29;20036;-89
2024/03/09 06:22:18;;;;;;;20.67;11.25;;;;;;;;;;4884039;29;20050;-88
2024/03/09 06:25:03;;;;;;;17.33;10.55;;;;;;;;;;4901564;29;20028;-89
2024/03/09 06:27:51;;;;;;;20.70;11.80;;;;;;;;;;4899024;29;20092;-89
2024/03/09 06:30:37;;;;;;;21.45;11.02;;;;;;;;;;4900201;29;20067;-89
2024/03/09 06:33:22;;;;;;;17.90;11.02;;;;;;;;;;4900210;29;20133;-89
2024/03/09 06:36:12;;;;;;;17.25;11.23;;;;;;;;;;4902699;29;20069;-89
2024/03/09 06:38:57;;;;;;;17.67;10.18;;;;;;;;;;4907930;29;20012;-89
2024/03/09 06:41:47;;;;;;;21.75;12.15;;;;;;;;;;4918185;29;20043;-88
2024/03/09 06:44:32;;;;;;;18.73;12.35;;;;;;;;;;4888081;29;20036;-88
2024/03/09 06:47:18;;;;;;;18.77;11.45;;;;;;;;;;4904592;29;20043;-88
2024/03/09 06:50:04;;;;;;;18.10;11.90;;;;;;;;;;4905054;29;20103;-88
2024/03/09 06:52:53;;;;;;;21.45;11.57;;;;;;;;;;4904197;29;20024;-89
2024/03/09 06:55:39;;;;;;;22.00;12.00;;;;;;;;;;4904167;29;20025;-89
2024/03/09 06:58:24;;;;;;;21.67;12.85;;;;;;;;;;4888268;29;20021;-89
2024/03/09 07:01:19;;;;;;;20.65;11.52;;;;;;;;;;4893512;29;20088;-89
2024/03/09 07:04:06;;;;;;;21.83;12.32;;;;;;;;;;4921454;29;20233;-89
2024/03/09 07:06:52;;;;;;;21.15;11.55;;;;;;;;;;4922797;29;20032;-89
2024/03/09 07:09:37;;;;;;;21.33;12.07;;;;;;;;;;4935299;29;20032;-88
2024/03/09 07:12:23;;;;;;;17.75;11.20;;;;;;;;;;4935065;29;20048;-89
2024/03/09 07:15:14;;;;;;;19.92;11.55;;;;;;;;;;4908957;29;20015;-89
2024/03/09 07:18:00;;;;;;;20.67;11.40;;;;;;;;;;4892246;29;20032;-89
2024/03/09 07:20:45;;;;;;;18.52;11.35;;;;;;;;;;4897946;29;20020;-89
2024/03/09 07:23:31;;;;;;;20.63;12.70;;;;;;;;;;4885074;29;20084;-90
2024/03/09 07:26:17;;;;;;;18.23;10.70;;;;;;;;;;4897804;29;20024;-89
2024/03/09 07:29:03;;;;;;;21.67;12.93;;;;;;;;;;4896490;29;20383;-90
2024/03/09 07:31:49;;;;;;;17.60;11.52;;;;;;;;;;4897603;29;20439;-89
2024/03/09 07:34:34;;;;;;;19.80;11.98;;;;;;;;;;4897630;29;20059;-90
2024/03/09 07:37:19;;;;;;;19.42;10.93;;;;;;;;;;4896913;29;20039;-89
2024/03/09 07:40:06;;;;;;;22.15;11.65;;;;;;;;;;4893644;29;20024;-88
2024/03/09 07:42:54;;;;;;;21.75;12.95;;;;;;;;;;4903398;29;20084;-88
2024/03/09 07:45:40;;;;;;;21.60;11.80;;;;;;;;;;4897551;29;20044;-87
2024/03/09 07:48:26;;;;;;;20.50;12.48;;;;;;;;;;4899054;29;20031;-86
2024/03/09 07:51:11;;;;;;;20.52;12.93;;;;;;;;;;4898794;29;20040;-90
2024/03/09 07:54:04;;;;;;;23.15;12.75;;;;;;;;;;4894872;29;20369;-91
2024/03/09 07:56:56;;;;;;;18.95;11.10;;;;;;;;;;4897527;29;20032;-90
2024/03/09 07:59:41;;;;;;;20.67;12.68;;;;;;;;;;4895678;29;21707;-89
2024/03/09 08:02:49;;;;;;;23.63;13.52;;;;;;;;;;4899771;29;20024;-90
2024/03/09 08:05:43;;;;;;;19.75;12.95;;;;;;;;;;4896195;29;20024;-90
2024/03/09 08:08:58;;;;;;;24.10;13.73;;;;;;;;;;4898594;29;20036;-88
2024/03/09 08:15:40;;;;;;;19.13;11.88;;;;;;;;;;4891166;29;20028;-89
2024/03/09 08:18:36;;;;;;;19.10;12.98;;;;;;;;;;4891104;29;20399;-90
2024/03/09 08:24:38;;;;;;;19.65;13.18;;;;;;;;;;4919913;29;20039;-89
2024/03/09 08:27:24;;;;;;;18.95;11.50;;;;;;;;;;4919187;29;20035;-89
2024/03/09 08:30:15;;;;;;;20.52;12.65;;;;;;;;;;4906039;29;20111;-89
2024/03/09 08:33:01;;;;;;;16.98;11.57;;;;;;;;;;4897811;29;20382;-89
2024/03/09 08:35:46;;;;;;;21.60;12.90;;;;;;;;;;4913042;29;20115;-88
2024/03/09 08:38:32;;;;;;;19.92;11.57;;;;;;;;;;4899213;29;20036;-88
2024/03/09 08:41:17;;;;;;;17.02;12.20;;;;;;;;;;4912549;29;20032;-88
2024/03/09 08:44:03;;;;;;;19.25;12.15;;;;;;;;;;4899618;29;20494;-88
2024/03/09 08:46:51;;;;;;;16.65;12.25;;;;;;;;;;4898404;29;20087;-88
2024/03/09 08:49:39;;;;;;;16.80;12.32;;;;;;;;;;4894261;29;20033;-89
2024/03/09 08:52:26;;;;;;;16.98;11.27;;;;;;;;;;4887332;29;20024;-89
2024/03/09 08:55:13;;;;;;;21.70;12.50;;;;;;;;;;4899516;29;20472;-89
2024/03/09 08:58:01;;;;;;;19.52;11.77;;;;;;;;;;4899653;29;20040;-90
2024/03/09 09:00:48;;;;;;;18.38;11.77;;;;;;;;;;4898978;29;20118;-89
2024/03/09 09:03:35;;;;;;;16.55;10.93;;;;;;;;;;4904722;29;20075;-89
2024/03/09 09:06:26;;;;;;;17.65;10.90;;;;;;;;;;4915963;29;20035;-89
2024/03/09 09:09:16;;;;;;;15.95;11.45;;;;;;;;;;4916583;29;20070;-90
2024/03/09 09:12:02;;;;;;;16.83;10.90;;;;;;;;;;4904259;29;20019;-89
2024/03/09 09:14:47;;;;;;;18.77;13.48;;;;;;;;;;4902069;29;20489;-88
2024/03/09 09:17:33;;;;;;;18.60;12.90;;;;;;;;;;4902227;29;20020;-88
2024/03/09 09:20:19;;;;;;;18.10;13.50;;;;;;;;;;4900792;29;20381;-90
2024/03/09 09:23:07;;;;;;;17.13;11.68;;;;;;;;;;4886525;29;20031;-90
2024/03/09 09:25:53;;;;;;;15.85;12.52;;;;;;;;;;4899041;29;20039;-86
2024/03/09 09:28:39;;;;;;;17.67;12.20;;;;;;;;;;4911672;29;20024;-89
2024/03/09 09:31:25;;;;;;;15.50;10.88;;;;;;;;;;4898032;29;20052;-87
2024/03/09 09:34:13;;;;;;;15.35;10.52;;;;;;;;;;4911084;29;20390;-87
2024/03/09 09:36:59;;;;;;;18.63;13.32;;;;;;;;;;4897893;29;20031;-86
2024/03/09 09:39:44;;;;;;;18.67;11.68;;;;;;;;;;4910763;29;20024;-86
2024/03/09 09:42:31;;;;;;;16.27;11.18;;;;;;;;;;4910869;29;20038;-84
2024/03/09 09:45:28;;;;;;;25.38;11.63;;;;;;;;;;4898521;29;20063;-88
2024/03/09 09:48:14;;;;;;;14.52;10.68;;;;;;;;;;4897312;29;20117;-89
2024/03/09 09:51:01;;;;;;;14.48;9.85;;;;;;;;;;4898169;29;20038;-87
2024/03/09 09:53:49;;;;;;;15.15;9.70;;;;;;;;;;4898216;29;20028;-86
2024/03/09 09:56:34;;;;;;;15.15;9.38;;;;;;;;;;4884507;29;20024;-89
2024/03/09 09:59:19;;;;;;;15.43;10.75;;;;;;;;;;4898260;29;20035;-89
2024/03/09 10:02:11;;;;;;;14.75;10.50;;;;;;;;;;4896252;29;20022;-89
2024/03/09 10:04:59;;;;;;;13.20;9.48;;;;;;;;;;4893613;29;20345;-89
2024/03/09 10:07:58;;;;;;;13.50;9.60;;;;;;;;;;4882955;29;20028;-88
2024/03/09 10:10:45;;;;;;;14.30;8.95;;;;;;;;;;4910162;29;20472;-86
2024/03/09 10:13:30;;;;;;;13.75;9.50;;;;;;;;;;4893850;29;20058;-86
2024/03/09 10:16:16;;;;;;;13.60;8.35;;;;;;;;;;4898293;29;20031;-85
2024/03/09 10:19:01;;;;;;;13.18;7.78;;;;;;;;;;4896340;29;20035;-86
2024/03/09 10:21:51;;;;;;;13.73;9.13;;;;;;;;;;4898485;29;20042;-82
2024/03/09 10:24:53;;;;;;;11.98;7.45;;;;;;;;;;4891298;29;20027;-85
2024/03/09 10:27:38;;;;;;;11.70;7.28;;;;;;;;;;4894821;29;20506;-84
2024/03/09 10:30:24;;;;;;;15.20;7.78;;;;;;;;;;4896337;29;20060;-83
2024/03/09 10:33:10;;;;;;;12.30;7.40;;;;;;;;;;4896264;29;20036;-84
2024/03/09 10:35:57;;;;;;;12.32;7.00;;;;;;;;;;4896263;29;20538;-85
2024/03/09 10:38:43;;;;;;;14.90;6.20;;;;;;;;;;4895729;29;20036;-85
2024/03/09 10:41:29;;;;;;;10.05;6.68;;;;;;;;;;4903137;29;20029;-84
2024/03/09 10:44:14;;;;;;;9.15;5.22;;;;;;;;;;4909600;29;20111;-83
2024/03/09 10:47:05;;;;;;;7.60;5.20;;;;;;;;;;4896007;29;20028;-82
2024/03/09 10:49:55;;;;;;;11.40;6.40;;;;;;;;;;4907928;29;20505;-84
2024/03/09 10:52:44;;;;;;;9.77;5.07;;;;;;;;;;4905254;29;20044;-84
2024/03/09 10:55:34;;;;;;;9.95;5.97;;;;;;;;;;4895453;29;20050;-85
2024/03/09 10:58:24;;;;;;;9.57;6.28;;;;;;;;;;4900029;29;20099;-87
2024/03/09 11:01:10;;;;;;;10.68;5.93;;;;;;;;;;4894111;29;20032;-86
2024/03/09 11:03:59;;;;;;;9.20;6.20;;;;;;;;;;4898961;29;20122;-88
2024/03/09 11:06:47;;;;;;;9.55;6.10;;;;;;;;;;4889191;29;20028;-88
2024/03/09 11:09:33;;;;;;;10.50;6.63;;;;;;;;;;4890077;29;20040;-85
2024/03/09 11:12:19;;;;;;;10.70;5.82;;;;;;;;;;4880125;29;20036;-85
2024/03/09 11:15:08;;;;;;;9.63;6.03;;;;;;;;;;4895581;29;20031;-86
2024/03/09 11:17:56;;;;;;;10.65;6.65;;;;;;;;;;4890681;29;20111;-82
2024/03/09 11:21:03;;;;;;;9.95;6.18;;;;;;;;;;4895697;29;20040;-86
2024/03/09 11:23:51;;;;;;;9.60;6.07;;;;;;;;;;4909209;29;20036;-86
2024/03/09 11:26:52;;;;;;;11.18;6.28;;;;;;;;;;4896655;29;20111;-85
2024/03/09 11:29:40;;;;;;;11.57;6.50;;;;;;;;;;4896102;29;20055;-86
2024/03/09 11:32:28;;;;;;;10.77;6.95;;;;;;;;;;4896678;29;20056;-85
2024/03/09 11:35:26;;;;;;;10.35;6.95;;;;;;;;;;4896551;29;20039;-86
2024/03/09 11:38:18;;;;;;;13.60;9.70;;;;;;;;;;4896779;29;20100;-86
2024/03/09 11:41:04;;;;;;;11.68;8.10;;;;;;;;;;4896250;29;20028;-87
2024/03/09 11:43:49;;;;;;;13.13;8.60;;;;;;;;;;4897018;29;20453;-88
2024/03/09 11:46:35;;;;;;;12.43;7.95;;;;;;;;;;4896515;29;20031;-88
2024/03/09 11:49:20;;;;;;;14.30;7.25;;;;;;;;;;4899537;29;20028;-89
2024/03/09 11:52:07;;;;;;;12.32;6.93;;;;;;;;;;4898929;29;20028;-89
2024/03/09 11:54:53;;;;;;;8.45;5.57;;;;;;;;;;4901363;29;20055;-89
2024/03/09 11:57:38;;;;;;;12.02;7.80;;;;;;;;;;4900985;29;20444;-89
2024/03/09 12:00:24;;;;;;;12.25;8.70;;;;;;;;;;4913120;29;20031;-88
2024/03/09 12:03:17;;;;;;;14.10;8.60;;;;;;;;;;4886019;29;20344;-88
2024/03/09 12:06:02;;;;;;;9.52;6.30;;;;;;;;;;4891840;29;20028;-89
2024/03/09 12:08:49;;;;;;;14.13;6.85;;;;;;;;;;4916482;29;20020;-90
2024/03/09 12:11:38;;;;;;;10.68;5.70;;;;;;;;;;4889021;29;20024;-89
2024/03/09 12:14:23;;;;;;;6.68;3.63;;;;;;;;;;4914003;29;20024;-90
2024/03/09 12:17:10;;;;;;;5.93;3.47;;;;;;;;;;4895296;29;20040;-88
2024/03/09 12:19:55;;;;;;;9.32;4.07;;;;;;;;;;4913383;29;20400;-89
2024/03/09 12:22:41;;;;;;;7.18;4.40;;;;;;;;;;4899335;29;20095;-89
2024/03/09 12:25:26;;;;;;;6.53;4.28;;;;;;;;;;4899511;29;20059;-89
2024/03/09 12:28:15;;;;;;;8.07;4.78;;;;;;;;;;4900141;29;20028;-89
2024/03/09 12:31:00;;;;;;;6.55;4.00;;;;;;;;;;4895956;29;20059;-88
2024/03/09 12:33:46;;;;;;;6.43;4.20;;;;;;;;;;4900013;29;20040;-89
2024/03/09 12:36:33;;;;;;;8.98;4.63;;;;;;;;;;4899503;29;20035;-89
2024/03/09 12:39:26;;;;;;;8.80;4.50;;;;;;;;;;4899308;29;20039;-89
2024/03/09 12:42:12;;;;;;;8.13;5.32;;;;;;;;;;4899654;29;20040;-87
2024/03/09 12:44:57;;;;;;;8.73;5.05;;;;;;;;;;4898747;29;20038;-89
2024/03/09 12:47:43;;;;;;;10.50;5.78;;;;;;;;;;4912398;29;20475;-89
2024/03/09 12:50:31;;;;;;;10.90;6.82;;;;;;;;;;4899053;29;20111;-88
2024/03/09 12:53:21;;;;;;;8.57;5.40;;;;;;;;;;4889454;29;20142;-88
2024/03/09 12:56:06;;;;;;;;;;;;;;;;;;4888444;29;20032;-88
2024/03/09 12:58:51;;;;;;;10.20;6.25;;;;;;;;;;4897661;29;20428;-89
2024/03/09 13:01:37;;;;;;;11.18;5.80;;;;;;;;;;4901286;29;20087;-89
2024/03/09 13:04:24;;;;;;;9.85;6.18;;;;;;;;;;4905649;29;20024;-88
2024/03/09 13:07:14;;;;;;;11.25;6.80;;;;;;;;;;4899199;29;20055;-87
2024/03/09 13:09:59;;;;;;;8.15;5.15;;;;;;;;;;4898842;29;20023;-88
2024/03/09 13:12:47;;;;;;;9.68;6.22;;;;;;;;;;4898139;29;20028;-89
2024/03/09 13:15:35;;;;;;;10.38;6.03;;;;;;;;;;4901570;29;20448;-89
2024/03/09 13:18:22;;;;;;;9.95;6.05;;;;;;;;;;4893218;29;20115;-89
2024/03/09 13:21:08;;;;;;;10.27;6.05;;;;;;;;;;4910328;29;20027;-88
2024/03/09 13:23:58;;;;;;;8.35;4.97;;;;;;;;;;4899190;29;20024;-88
2024/03/09 13:26:44;;;;;;;10.70;5.82;;;;;;;;;;4898626;29;20028;-89
2024/03/09 13:29:29;;;;;;;8.50;4.90;;;;;;;;;;4898104;29;20423;-89
2024/03/09 13:32:18;;;;;;;8.75;5.50;;;;;;;;;;4901137;29;20481;-89
2024/03/09 13:35:07;;;;;;;11.00;5.40;;;;;;;;;;4911054;29;20062;-88
2024/03/09 13:37:52;;;;;;;9.37;4.83;;;;;;;;;;4896469;29;20036;-88
2024/03/09 13:40:37;;;;;;;7.25;4.50;;;;;;;;;;4897893;29;20507;-87
2024/03/09 13:43:23;;;;;;;8.30;4.43;;;;;;;;;;4898311;29;20024;-88
2024/03/09 13:46:08;;;;;;;6.32;4.25;;;;;;;;;;4912377;29;20119;-89
2024/03/09 13:48:53;;;;;;;6.95;3.90;;;;;;;;;;4913009;29;20032;-88
2024/03/09 13:51:43;;;;;;;9.10;4.47;;;;;;;;;;4899578;29;20111;-87
2024/03/09 13:54:29;;;;;;;6.05;4.13;;;;;;;;;;4912732;29;20115;-89
2024/03/09 13:57:14;;;;;;;8.68;4.10;;;;;;;;;;4898735;29;20035;-87
2024/03/09 14:00:04;;;;;;;8.90;4.68;;;;;;;;;;4898685;29;20056;-88
2024/03/09 14:02:51;;;;;;;10.77;4.97;;;;;;;;;;4914568;29;20032;-88
2024/03/09 14:05:37;;;;;;;7.35;4.35;;;;;;;;;;4898617;29;20039;-87
2024/03/09 14:08:22;;;;;;;7.82;3.92;;;;;;;;;;4900412;29;20035;-87
2024/03/09 14:11:08;;;;;;;8.85;4.00;;;;;;;;;;4931395;29;20026;-87
2024/03/09 14:13:53;;;;;;;10.07;4.85;;;;;;;;;;4901739;29;20032;-88
2024/03/09 14:16:41;;;;;;;7.47;4.50;;;;;;;;;;4893997;29;20075;-88
2024/03/09 14:19:27;;;;;;;11.35;4.70;;;;;;;;;;4885174;29;20040;-87
2024/03/09 14:22:17;;;;;;;8.00;4.20;;;;;;;;;;4889976;29;20047;-88
2024/03/09 14:25:02;;;;;;;7.38;4.63;;;;;;;;;;4898450;29;20032;-87
2024/03/09 14:27:47;;;;;;;8.10;3.83;;;;;;;;;;4912466;29;20479;-88
2024/03/09 14:30:34;;;;;;;8.48;4.47;;;;;;;;;;4893316;29;20520;-88
2024/03/09 14:33:19;;;;;;;9.00;4.20;;;;;;;;;;4895992;29;20115;-88
2024/03/09 14:36:06;;;;;;;12.70;5.40;;;;;;;;;;4897353;29;20487;-87
2024/03/09 14:38:54;;;;;;;8.80;4.88;;;;;;;;;;4886499;29;20038;-88
2024/03/09 14:41:40;;;;;;;8.07;4.50;;;;;;;;;;4918155;29;20035;-88
2024/03/09 14:44:29;;;;;;;9.48;4.82;;;;;;;;;;4917311;29;20142;-88
2024/03/09 14:47:14;;;;;;;8.98;5.53;;;;;;;;;;4892000;29;20078;-88
2024/03/09 14:50:00;;;;;;;9.88;5.07;;;;;;;;;;4892026;29;20136;-87
2024/03/09 14:52:46;;;;;;;10.15;5.60;;;;;;;;;;4898970;29;20020;-86
2024/03/09 14:55:32;;;;;;;7.85;4.40;;;;;;;;;;4898473;29;20028;-87
2024/03/09 14:58:17;;;;;;;7.50;4.63;;;;;;;;;;4896347;29;20032;-88
2024/03/09 15:01:04;;;;;;;9.55;5.53;;;;;;;;;;4899607;29;20127;-88
2024/03/09 15:03:49;;;;;;;8.40;4.40;;;;;;;;;;4900015;29;20024;-88
2024/03/09 15:06:36;;;;;;;7.88;4.45;;;;;;;;;;4899276;29;20114;-87
2024/03/09 15:09:23;;;;;;;10.45;4.95;;;;;;;;;;4914522;29;20035;-89
2024/03/09 15:12:09;;;;;;;13.38;5.53;;;;;;;;;;4892395;29;20118;-88
2024/03/09 15:14:54;;;;;;;9.55;4.70;;;;;;;;;;4894654;29;20005;-89
2024/03/09 15:17:41;;;;;;;9.02;5.07;;;;;;;;;;4903953;29;20013;-88
2024/03/09 15:20:26;;;;;;;8.13;4.72;;;;;;;;;;4904363;29;20022;-87
2024/03/09 15:23:15;;;;;;;8.25;4.63;;;;;;;;;;4903828;29;20057;-89
2024/03/09 15:26:01;;;;;;;9.70;5.28;;;;;;;;;;4930043;29;20059;-89
2024/03/09 15:28:46;;;;;;;8.60;4.60;;;;;;;;;;4924488;29;20028;-88
2024/03/09 15:31:31;;;;;;;9.38;5.18;;;;;;;;;;4890488;29;20268;-88
2024/03/09 15:34:17;;;;;;;6.63;4.38;;;;;;;;;;4914192;29;20178;-88
2024/03/09 15:37:03;;;;;;;7.50;3.75;;;;;;;;;;4928464;29;20016;-88
2024/03/09 15:39:50;;;;;;;8.70;4.45;;;;;;;;;;4908625;29;20072;-88
2024/03/09 15:42:36;;;;;;;10.80;5.03;;;;;;;;;;4905770;29;20555;-88
2024/03/09 15:45:21;;;;;;;6.32;3.78;;;;;;;;;;4885720;29;20051;-88
2024/03/09 15:48:10;;;;;;;6.45;3.95;;;;;;;;;;4896009;29;20386;-88
2024/03/09 15:50:58;;;;;;;8.47;4.20;;;;;;;;;;4913641;29;20028;-88
2024/03/09 15:53:43;;;;;;;8.40;4.40;;;;;;;;;;4904959;29;20256;-88
2024/03/09 15:56:29;;;;;;;8.63;3.70;;;;;;;;;;4918880;29;20482;-88
2024/03/09 15:59:14;;;;;;;6.57;4.22;;;;;;;;;;4900527;29;20043;-88
2024/03/09 16:01:59;;;;;;;7.32;4.53;;;;;;;;;;4913227;29;20030;-89
2024/03/09 16:04:48;;;;;;;7.75;4.32;;;;;;;;;;4913693;29;20083;-88
2024/03/09 16:07:38;;;;;;;7.82;5.07;;;;;;;;;;4898963;29;20059;-88
2024/03/09 16:10:23;;;;;;;10.07;5.72;;;;;;;;;;4882347;29;20861;-88
2024/03/09 16:13:12;;;;;;;7.85;4.47;;;;;;;;;;4880615;29;20033;-88
2024/03/09 16:16:06;;;;;;;8.45;4.85;;;;;;;;;;4888346;29;20031;-87
2024/03/09 16:18:51;;;;;;;8.43;5.20;;;;;;;;;;4901942;29;20036;-88
2024/03/09 16:21:38;;;;;;;10.00;5.30;;;;;;;;;;4902081;29;20107;-87
2024/03/09 16:24:23;;;;;;;12.73;6.45;;;;;;;;;;4908767;29;20103;-87
2024/03/09 16:27:08;;;;;;;9.27;5.90;;;;;;;;;;4915181;29;20028;-87
2024/03/09 16:29:57;;;;;;;12.18;5.20;;;;;;;;;;4900330;29;20646;-89
2024/03/09 16:32:44;;;;;;;9.63;5.40;;;;;;;;;;4901625;29;20036;-88